Time;durP1;ratioP1;P1;durP2;ratioP2;P2;SDS_P1;SDS_P2;PMS_P1;PMS_P2;Temp;Humidity;BMP_temperature;BMP_pressure;BME280_temperature;BME280_humidity;BME280_pressure;Samples;Min_cycle;Max_cycle;Signal;HPM_P1;HPM_P2
2024/03/04 06:42:22;;;;;;;19.58;12.57;;;;;;;;;;10504978;28;20763;-83
2024/03/04 06:47:23;;;;;;;25.23;14.40;;;;;;;;;;10503344;28;20093;-84
2024/03/04 06:52:24;;;;;;;41.10;25.92;;;;;;;;;;10503133;28;20400;-83
2024/03/04 06:57:25;;;;;;;25.23;15.93;;;;;;;;;;10520483;28;20025;-84
2024/03/04 07:02:26;;;;;;;13.32;9.00;;;;;;;;;;10515251;28;20066;-84
2024/03/04 07:07:27;;;;;;;30.08;20.17;;;;;;;;;;10529111;28;20029;-83
2024/03/04 07:12:28;;;;;;;;;;;;;;;;;;10508107;28;20434;-83
2024/03/04 07:17:29;;;;;;;22.50;15.93;;;;;;;;;;10497677;28;19904;-83
2024/03/04 07:22:30;;;;;;;;;;;;;;;;;;10506423;28;20186;-80
2024/03/04 07:27:31;;;;;;;21.10;14.40;;;;;;;;;;10534960;28;19908;-82
2024/03/04 07:32:32;;;;;;;14.07;9.35;;;;;;;;;;10515807;28;20029;-84
2024/03/04 07:37:34;;;;;;;;;;;;;;;;;;10506748;28;20073;-83
2024/03/04 07:42:35;;;;;;;22.75;17.02;;;;;;;;;;10507725;28;19977;-82
2024/03/04 07:47:36;;;;;;;;;;;;;;;;;;10507799;28;20025;-82
2024/03/04 07:52:38;;;;;;;18.58;12.23;;;;;;;;;;10488042;28;20003;-83
2024/03/04 07:57:40;;;;;;;10.32;7.40;;;;;;;;;;10496093;28;20032;-82
2024/03/04 08:02:42;;;;;;;9.75;7.40;;;;;;;;;;10489613;28;20018;-81
2024/03/04 08:07:43;;;;;;;11.52;6.80;;;;;;;;;;10479596;28;20017;-80
2024/03/04 08:12:45;;;;;;;10.63;8.38;;;;;;;;;;10484716;28;20032;-80
2024/03/04 08:17:46;;;;;;;10.30;7.45;;;;;;;;;;10493550;28;20112;-81
2024/03/04 08:22:48;;;;;;;16.27;12.07;;;;;;;;;;10475106;28;20041;-81
2024/03/04 08:27:49;;;;;;;9.65;7.70;;;;;;;;;;10473511;28;20029;-80
2024/03/04 08:32:53;;;;;;;6.43;5.18;;;;;;;;;;10473731;28;20103;-81
2024/03/04 08:37:54;;;;;;;9.57;7.13;;;;;;;;;;10474435;28;20039;-81
2024/03/04 08:42:55;;;;;;;8.45;5.75;;;;;;;;;;10475142;28;20028;-81
2024/03/04 08:47:56;;;;;;;7.65;6.00;;;;;;;;;;10475929;28;20103;-82
2024/03/04 08:52:58;;;;;;;7.72;5.93;;;;;;;;;;10475735;28;20413;-82
2024/03/04 08:57:59;;;;;;;9.18;6.18;;;;;;;;;;10475427;28;20052;-80
2024/03/04 09:03:00;;;;;;;8.02;5.60;;;;;;;;;;10471064;28;20029;-81
2024/03/04 09:08:04;;;;;;;8.77;6.13;;;;;;;;;;10474851;28;20021;-80
2024/03/04 09:13:05;;;;;;;8.57;6.03;;;;;;;;;;10475286;28;20021;-80
2024/03/04 09:18:06;;;;;;;8.13;4.97;;;;;;;;;;10477475;28;20036;-81
2024/03/04 09:23:07;;;;;;;6.35;4.50;;;;;;;;;;10476106;28;20024;-81
2024/03/04 09:28:08;;;;;;;8.98;5.00;;;;;;;;;;10479139;28;20039;-80
2024/03/04 09:33:11;;;;;;;8.52;4.63;;;;;;;;;;10495043;28;20029;-81
2024/03/04 09:38:12;;;;;;;8.55;5.50;;;;;;;;;;10476599;28;20029;-81
2024/03/04 09:43:18;;;;;;;12.30;6.15;;;;;;;;;;10473354;28;20027;-81
2024/03/04 09:48:20;;;;;;;10.75;6.05;;;;;;;;;;10472909;28;20071;-81
2024/03/04 10:11:06;;;;;;;13.02;8.35;;;;;;;;;;10342303;28;20097;-84
2024/03/04 14:23:29;;;;;;;5.82;3.55;;;;;;;;;;10421528;28;20049;-87
2024/03/04 15:26:37;;;;;;;5.57;3.60;;;;;;;;;;10254010;29;20083;-84
2024/03/04 15:43:34;;;;;;;6.75;3.20;;;;;;;;;;10226653;29;20134;-86
2024/03/04 15:49:26;;;;;;;7.40;3.85;;;;;;;;;;10108584;29;20085;-85
2024/03/04 15:54:47;;;;;;;4.20;3.13;;;;;;;;;;10354746;23;20044;-82
2024/03/04 15:59:49;;;;;;;6.82;3.88;;;;;;;;;;10559318;28;20135;-82
2024/03/04 16:04:50;;;;;;;6.07;3.20;;;;;;;;;;10552152;28;20028;-82
2024/03/04 16:09:51;;;;;;;5.65;3.00;;;;;;;;;;10566989;28;20059;-82
2024/03/04 16:14:52;;;;;;;4.80;3.50;;;;;;;;;;10572688;28;20090;-81
2024/03/04 16:19:53;;;;;;;6.22;3.10;;;;;;;;;;10573984;28;20029;-81
2024/03/04 16:24:54;;;;;;;4.18;2.70;;;;;;;;;;10575843;28;20035;-83
2024/03/04 16:29:56;;;;;;;4.78;2.58;;;;;;;;;;10570174;28;20039;-82
2024/03/04 16:34:58;;;;;;;4.78;3.10;;;;;;;;;;10549972;28;20043;-82
2024/03/04 16:40:00;;;;;;;3.85;2.83;;;;;;;;;;10552513;28;20528;-81
2024/03/04 16:45:02;;;;;;;5.15;3.78;;;;;;;;;;10553112;28;20039;-81
2024/03/04 16:50:03;;;;;;;4.20;2.95;;;;;;;;;;10554906;28;20052;-83
2024/03/04 16:55:05;;;;;;;4.35;2.92;;;;;;;;;;10554143;28;20024;-83
2024/03/04 17:00:08;;;;;;;4.55;3.35;;;;;;;;;;10553365;28;20040;-82
2024/03/04 17:05:12;;;;;;;4.72;2.70;;;;;;;;;;10552241;28;20086;-82
2024/03/04 17:10:13;;;;;;;4.05;3.30;;;;;;;;;;10553191;28;20024;-83
2024/03/04 17:15:14;;;;;;;6.90;4.57;;;;;;;;;;10554270;28;20026;-83
2024/03/04 17:20:18;;;;;;;4.53;3.03;;;;;;;;;;10552950;28;20101;-81
2024/03/04 17:25:19;;;;;;;6.50;4.00;;;;;;;;;;10547996;28;20100;-81
2024/03/04 17:30:21;;;;;;;8.45;5.88;;;;;;;;;;10552650;28;20031;-82
2024/03/04 17:35:21;;;;;;;6.45;4.80;;;;;;;;;;10553521;28;20019;-82
2024/03/04 17:40:23;;;;;;;5.97;4.10;;;;;;;;;;10552330;28;20069;-82
2024/03/04 17:45:24;;;;;;;6.47;4.47;;;;;;;;;;10557998;28;20111;-80
2024/03/04 17:50:26;;;;;;;5.00;3.00;;;;;;;;;;10581270;28;20074;-80
2024/03/04 17:55:27;;;;;;;4.25;3.35;;;;;;;;;;10560013;28;20411;-82
2024/03/04 18:00:28;;;;;;;5.80;4.22;;;;;;;;;;10558780;28;20038;-81
2024/03/04 18:05:29;;;;;;;6.82;4.63;;;;;;;;;;10577916;28;20036;-81
2024/03/04 18:10:32;;;;;;;4.97;4.25;;;;;;;;;;10549690;28;20020;-82
2024/03/04 18:15:33;;;;;;;5.13;4.13;;;;;;;;;;10550987;28;20023;-82
2024/03/04 18:20:34;;;;;;;9.18;7.25;;;;;;;;;;10550463;28;20509;-81
2024/03/04 18:25:35;;;;;;;7.78;5.95;;;;;;;;;;10550550;28;20078;-82
2024/03/04 18:30:36;;;;;;;9.10;7.00;;;;;;;;;;10550365;28;20097;-82
2024/03/04 18:35:38;;;;;;;7.05;4.90;;;;;;;;;;10551644;28;20147;-82
2024/03/04 18:40:39;;;;;;;7.15;4.45;;;;;;;;;;10551869;28;20091;-82
2024/03/04 18:45:40;;;;;;;8.35;5.43;;;;;;;;;;10550868;28;20126;-82
2024/03/04 18:50:41;;;;;;;6.97;5.00;;;;;;;;;;10561667;28;20044;-81
2024/03/04 18:55:42;;;;;;;9.88;7.43;;;;;;;;;;10565205;28;20046;-83
2024/03/04 19:00:43;;;;;;;8.88;6.50;;;;;;;;;;10549871;28;20028;-82
2024/03/04 19:05:44;;;;;;;4.70;3.85;;;;;;;;;;10548749;28;20076;-82
2024/03/04 19:10:45;;;;;;;6.07;4.43;;;;;;;;;;10546463;28;20131;-81
2024/03/04 19:15:46;;;;;;;5.78;4.35;;;;;;;;;;10548117;28;20541;-82
2024/03/04 19:20:47;;;;;;;8.55;6.18;;;;;;;;;;10541903;28;20484;-82
2024/03/04 19:25:49;;;;;;;6.60;4.85;;;;;;;;;;10543902;28;20087;-81
2024/03/04 19:30:50;;;;;;;9.95;7.00;;;;;;;;;;10544576;28;20024;-81
2024/03/04 19:35:51;;;;;;;9.70;7.40;;;;;;;;;;10544573;28;20051;-81
2024/03/04 19:40:52;;;;;;;21.80;14.30;;;;;;;;;;10545865;28;20020;-81
2024/03/04 19:45:53;;;;;;;7.78;5.40;;;;;;;;;;10555702;28;20066;-82
2024/03/04 19:50:55;;;;;;;8.95;6.13;;;;;;;;;;10561598;28;20016;-82
2024/03/04 19:55:58;;;;;;;13.30;9.55;;;;;;;;;;10562711;28;20091;-83
2024/03/04 20:00:59;;;;;;;16.70;9.65;;;;;;;;;;10567326;28;20383;-81
2024/03/04 20:06:00;;;;;;;18.75;12.10;;;;;;;;;;10546690;28;20020;-82
